createdAt,value
2022-10-26T00:01:51.862Z,10.65
2022-10-26T00:04:22.673Z,10.59
2022-10-26T00:06:53.131Z,10.39
2022-10-26T00:09:23.867Z,10.40
2022-10-26T00:11:55.275Z,10.32
2022-10-26T00:14:26.481Z,10.37
2022-10-26T00:16:59.701Z,10.34
2022-10-26T00:19:30.755Z,10.43
2022-10-26T00:22:01.269Z,10.42
2022-10-26T00:24:31.699Z,10.40
2022-10-26T00:27:02.187Z,10.43
2022-10-26T00:29:32.751Z,10.30
2022-10-26T00:32:06.877Z,10.18
2022-10-26T00:34:37.403Z,10.21
2022-10-26T00:37:07.991Z,10.16
2022-10-26T00:39:38.650Z,10.19
2022-10-26T00:42:09.435Z,10.19
2022-10-26T00:45:00.859Z,10.21
2022-10-26T00:47:45.622Z,10.15
2022-10-26T00:50:21.480Z,10.18
2022-10-26T00:52:53.764Z,10.06
2022-10-26T00:55:30.096Z,10.03
2022-10-26T00:58:01.931Z,9.92
2022-10-26T01:00:32.801Z,9.49
2022-10-26T01:03:10.626Z,8.97
2022-10-26T01:05:44.013Z,8.55
2022-10-26T01:08:15.470Z,8.35
2022-10-26T01:10:46.228Z,8.17
2022-10-26T01:13:18.988Z,8.05
2022-10-26T01:15:59.865Z,7.94
2022-10-26T01:18:43.797Z,7.97
2022-10-26T01:21:42.766Z,8.03
2022-10-26T01:24:34.768Z,8.16
2022-10-26T01:27:23.415Z,8.22
2022-10-26T01:30:25.327Z,8.23
2022-10-26T01:33:23.063Z,8.15
2022-10-26T01:36:06.077Z,8.06
2022-10-26T01:38:54.652Z,8.02
2022-10-26T01:41:29.771Z,8.06
2022-10-26T01:44:06.357Z,8.15
2022-10-26T01:46:42.708Z,8.25
2022-10-26T01:49:19.013Z,8.33
2022-10-26T01:51:52.609Z,8.42
2022-10-26T01:54:23.199Z,8.47
2022-10-26T01:56:57.164Z,8.50
2022-10-26T01:59:41.241Z,8.49
2022-10-26T02:02:47.453Z,8.48
2022-10-26T02:05:34.682Z,8.49
2022-10-26T02:08:23.484Z,8.49
2022-10-26T02:11:04.852Z,8.47
2022-10-26T02:13:42.413Z,8.45
2022-10-26T02:16:23.031Z,8.44
2022-10-26T02:18:59.644Z,8.41
2022-10-26T02:21:39.311Z,8.36
2022-10-26T02:24:14.073Z,8.34
2022-10-26T02:26:49.110Z,8.31
2022-10-26T02:29:23.079Z,8.28
2022-10-26T02:31:54.920Z,8.28
2022-10-26T02:34:30.896Z,8.27
2022-10-26T02:37:05.439Z,8.25
2022-10-26T02:39:38.116Z,8.26
2022-10-26T02:42:11.599Z,8.27
2022-10-26T02:44:47.485Z,8.31
2022-10-26T02:47:18.334Z,8.35
2022-10-26T02:49:49.000Z,8.37
2022-10-26T02:52:31.574Z,8.38
2022-10-26T02:55:06.424Z,8.33
2022-10-26T02:57:40.457Z,8.32
2022-10-26T03:00:13.547Z,8.30
2022-10-26T03:02:48.410Z,8.29
2022-10-26T03:05:23.058Z,8.25
2022-10-26T03:07:56.430Z,8.35
2022-10-26T03:10:27.182Z,8.42
2022-10-26T03:12:57.931Z,8.59
2022-10-26T03:15:28.387Z,8.73
2022-10-26T03:17:58.907Z,8.87
2022-10-26T03:20:29.391Z,9.00
2022-10-26T03:23:02.788Z,9.14
2022-10-26T03:25:33.316Z,9.28
2022-10-26T03:28:05.674Z,9.39
2022-10-26T03:30:36.632Z,9.49
2022-10-26T03:33:07.209Z,9.60
2022-10-26T03:35:37.776Z,9.67
2022-10-26T03:38:15.174Z,9.75
2022-10-26T03:40:48.691Z,9.79
2022-10-26T03:43:19.201Z,9.82
2022-10-26T03:45:49.638Z,9.83
2022-10-26T03:48:20.151Z,9.85
2022-10-26T03:50:50.652Z,9.87
2022-10-26T03:53:23.817Z,9.87
2022-10-26T03:55:54.274Z,9.87
2022-10-26T04:01:15.890Z,9.88
2022-10-26T04:03:46.424Z,9.89
2022-10-26T04:06:17.349Z,9.89
2022-10-26T04:08:51.975Z,9.91
2022-10-26T04:11:22.477Z,9.92
2022-10-26T04:13:52.969Z,9.94
2022-10-26T04:16:23.473Z,9.95
2022-10-26T04:18:54.030Z,9.95
2022-10-26T04:21:25.172Z,9.96
2022-10-26T04:23:58.610Z,9.94
2022-10-26T04:26:29.102Z,9.93
2022-10-26T04:28:59.766Z,9.92
2022-10-26T04:31:30.459Z,9.92
2022-10-26T04:34:01.106Z,9.91
2022-10-26T04:36:31.647Z,9.90
2022-10-26T04:39:05.076Z,9.88
2022-10-26T04:41:35.512Z,9.85
2022-10-26T04:44:06.053Z,9.82
2022-10-26T04:46:36.509Z,9.80
2022-10-26T04:49:07.033Z,9.76
2022-10-26T04:51:37.427Z,9.72
2022-10-26T04:54:10.743Z,9.68
2022-10-26T04:56:41.351Z,9.64
2022-10-26T04:59:11.866Z,9.61
2022-10-26T05:01:42.534Z,9.59
2022-10-26T05:04:13.335Z,9.59
2022-10-26T05:06:43.882Z,9.59
2022-10-26T05:09:17.064Z,9.56
2022-10-26T05:11:47.604Z,9.57
2022-10-26T05:14:18.175Z,9.54
2022-10-26T05:16:48.821Z,9.54
2022-10-26T05:19:19.303Z,9.58
2022-10-26T05:21:49.714Z,9.56
2022-10-26T05:24:22.996Z,9.57
2022-10-26T05:26:53.438Z,9.61
2022-10-26T05:29:23.956Z,9.63
2022-10-26T05:31:54.791Z,9.68
2022-10-26T05:34:25.428Z,9.74
2022-10-26T05:36:56.915Z,9.83
2022-10-26T05:39:30.213Z,9.91
2022-10-26T05:42:00.686Z,10.01
2022-10-26T05:44:31.314Z,10.12
2022-10-26T05:47:01.745Z,10.22
2022-10-26T05:49:32.309Z,10.34
2022-10-26T05:52:02.778Z,10.47
2022-10-26T05:54:35.992Z,10.62
2022-10-26T05:57:07.220Z,10.77
2022-10-26T05:59:38.721Z,10.93
2022-10-26T06:02:18.094Z,11.10
2022-10-26T06:04:50.965Z,11.27
2022-10-26T06:07:23.090Z,11.45
2022-10-26T06:09:57.112Z,11.66
2022-10-26T06:12:28.269Z,11.90
2022-10-26T06:14:59.958Z,12.15
2022-10-26T06:17:45.412Z,12.46
2022-10-26T06:20:29.307Z,12.77
2022-10-26T06:23:13.273Z,13.10
2022-10-26T06:25:55.396Z,13.44
2022-10-26T06:28:39.286Z,13.75
2022-10-26T06:31:10.431Z,14.06
2022-10-26T06:33:40.884Z,14.33
2022-10-26T06:36:24.422Z,14.67
2022-10-26T06:38:59.168Z,14.98
2022-10-26T06:41:35.202Z,15.39
2022-10-26T06:44:07.270Z,15.74
2022-10-26T06:46:45.017Z,16.09
2022-10-26T06:49:22.467Z,16.43
2022-10-26T06:51:59.334Z,16.81
2022-10-26T06:54:41.278Z,17.25
2022-10-26T06:57:17.917Z,17.77
2022-10-26T06:59:52.337Z,18.26
2022-10-26T07:02:23.167Z,18.78
2022-10-26T07:04:53.764Z,19.15
2022-10-26T07:07:26.770Z,19.69
2022-10-26T07:09:57.336Z,20.34
2022-10-26T07:12:32.887Z,21.08
2022-10-26T07:15:03.819Z,21.81
2022-10-26T07:17:38.258Z,22.41
2022-10-26T07:20:11.959Z,22.90
2022-10-26T07:22:43.014Z,23.27
2022-10-26T07:25:14.581Z,23.49
2022-10-26T07:27:47.949Z,23.69
2022-10-26T07:30:18.890Z,23.87
2022-10-26T07:32:49.781Z,24.00
2022-10-26T07:35:20.514Z,24.11
2022-10-26T07:37:51.073Z,24.23
2022-10-26T07:42:55.984Z,24.38
2022-10-26T07:45:26.819Z,24.34
2022-10-26T07:47:57.616Z,24.28
2022-10-26T07:50:28.264Z,24.26
2022-10-26T07:52:58.806Z,23.97
2022-10-26T07:55:29.738Z,23.60
2022-10-26T07:58:02.903Z,23.17
2022-10-26T08:00:33.434Z,22.75
2022-10-26T08:03:03.983Z,22.36
2022-10-26T08:05:34.430Z,21.99
2022-10-26T08:08:06.103Z,21.64
2022-10-26T08:10:36.543Z,21.39
2022-10-26T08:13:09.678Z,21.12
2022-10-26T08:15:40.300Z,20.89
2022-10-26T08:18:10.878Z,20.66
2022-10-26T08:20:41.317Z,20.48
2022-10-26T08:23:11.914Z,20.34
2022-10-26T08:25:42.348Z,20.25
2022-10-26T08:28:15.532Z,20.20
2022-10-26T08:30:46.101Z,20.15
2022-10-26T08:33:16.741Z,20.11
2022-10-26T08:35:47.214Z,20.08
2022-10-26T08:38:17.882Z,20.05
2022-10-26T08:40:48.350Z,20.01
2022-10-26T08:43:25.712Z,19.96
2022-10-26T08:45:59.914Z,19.96
2022-10-26T08:48:35.395Z,19.96
2022-10-26T08:51:10.451Z,19.98
2022-10-26T08:53:42.526Z,19.99
2022-10-26T08:56:20.014Z,20.02
2022-10-26T08:58:59.730Z,20.03
2022-10-26T09:01:30.277Z,20.03
2022-10-26T09:06:38.966Z,19.98
2022-10-26T09:09:17.531Z,19.98
2022-10-26T09:11:58.351Z,19.97
2022-10-26T09:14:43.695Z,20.00
2022-10-26T09:17:23.227Z,20.01
2022-10-26T09:20:26.904Z,20.04
2022-10-26T09:23:04.085Z,20.05
2022-10-26T09:25:42.168Z,20.05
2022-10-26T09:28:18.711Z,20.05
2022-10-26T09:30:52.251Z,20.06
2022-10-26T09:36:23.836Z,20.04
2022-10-26T09:39:01.148Z,20.02
2022-10-26T09:41:39.402Z,19.99
2022-10-26T09:44:21.912Z,19.97
2022-10-26T09:47:00.329Z,19.95
2022-10-26T09:49:37.712Z,19.91
2022-10-26T09:52:08.250Z,20.01
2022-10-26T09:54:38.723Z,20.03
2022-10-26T09:57:10.987Z,20.03
2022-10-26T09:59:44.341Z,20.06
2022-10-26T10:02:49.229Z,20.07
2022-10-26T10:08:22.160Z,20.16
2022-10-26T10:11:05.250Z,20.22
2022-10-26T10:13:38.728Z,20.28
2022-10-26T10:16:13.588Z,20.32
2022-10-26T10:18:57.110Z,20.36
2022-10-26T10:21:38.022Z,20.43
2022-10-26T10:24:26.541Z,20.48
2022-10-26T10:27:02.716Z,20.50
2022-10-26T10:29:35.301Z,20.66
2022-10-26T10:32:07.866Z,20.79
2022-10-26T10:34:41.181Z,20.92
2022-10-26T10:37:27.371Z,21.08
2022-10-26T10:40:01.880Z,21.19
2022-10-26T10:42:36.022Z,21.27
2022-10-26T10:45:09.163Z,21.40
2022-10-26T10:50:37.055Z,21.61
2022-10-26T10:53:19.817Z,21.74
2022-10-26T10:56:06.507Z,21.87
2022-10-26T10:58:50.290Z,22.03
2022-10-26T11:01:25.476Z,22.19
2022-10-26T11:06:49.986Z,22.50
2022-10-26T11:09:23.979Z,22.60
2022-10-26T11:11:58.226Z,22.77
2022-10-26T11:14:32.976Z,22.90
2022-10-26T11:17:09.747Z,22.97
2022-10-26T11:19:47.016Z,23.04
2022-10-26T11:22:25.587Z,23.14
2022-10-26T11:25:02.428Z,23.24
2022-10-26T11:27:40.179Z,23.36
2022-10-26T11:30:18.392Z,23.47
2022-10-26T11:32:54.736Z,23.54
2022-10-26T11:35:31.485Z,23.58
2022-10-26T11:38:08.616Z,23.58
2022-10-26T11:40:47.723Z,23.62
2022-10-26T11:43:24.705Z,23.65
2022-10-26T11:46:06.690Z,23.65
2022-10-26T11:48:44.411Z,23.71
2022-10-26T11:51:23.411Z,23.79
2022-10-26T11:53:56.628Z,23.82
2022-10-26T11:56:35.707Z,23.85
2022-10-26T11:59:06.427Z,23.87
2022-10-26T12:01:37.491Z,23.90
2022-10-26T12:04:09.687Z,23.94
2022-10-26T12:06:40.943Z,23.99
2022-10-26T12:09:20.124Z,24.01
2022-10-26T12:11:54.916Z,24.01
2022-10-26T12:14:30.236Z,24.05
2022-10-26T12:17:07.177Z,24.08
2022-10-26T12:19:45.963Z,24.06
2022-10-26T12:22:19.436Z,23.95
2022-10-26T12:25:13.955Z,23.78
2022-10-26T12:27:55.858Z,23.61
2022-10-26T12:30:29.980Z,23.42
2022-10-26T12:33:02.248Z,23.24
2022-10-26T12:35:43.070Z,23.06
2022-10-26T12:38:49.162Z,22.86
2022-10-26T12:41:29.740Z,22.67
2022-10-26T12:44:04.804Z,22.54
2022-10-26T12:46:42.076Z,22.43
2022-10-26T12:49:57.728Z,22.32
2022-10-26T12:52:53.301Z,22.23
2022-10-26T12:56:07.410Z,22.16
2022-10-26T12:58:55.775Z,22.08
2022-10-26T13:05:16.402Z,21.92
2022-10-26T13:07:47.029Z,21.86
2022-10-26T13:10:24.476Z,21.80
2022-10-26T13:12:58.377Z,21.75
2022-10-26T13:15:35.374Z,21.68
2022-10-26T13:18:12.701Z,21.60
2022-10-26T13:21:01.305Z,21.55
2022-10-26T13:23:34.279Z,21.47
2022-10-26T13:26:07.146Z,21.44
2022-10-26T13:28:51.023Z,21.38
2022-10-26T13:31:51.038Z,21.30
2022-10-26T13:34:27.432Z,21.27
2022-10-26T13:37:16.042Z,21.24
2022-10-26T13:39:49.459Z,21.21
2022-10-26T13:42:24.176Z,21.18
2022-10-26T13:44:57.449Z,21.15
2022-10-26T13:47:32.218Z,21.13
2022-10-26T13:50:10.813Z,21.10
2022-10-26T13:52:45.755Z,21.07
2022-10-26T13:55:23.589Z,21.01
2022-10-26T13:58:11.926Z,20.99
2022-10-26T14:00:42.521Z,20.95
2022-10-26T14:03:17.849Z,20.92
2022-10-26T14:05:54.237Z,20.88
2022-10-26T14:08:26.203Z,20.84
2022-10-26T14:10:59.414Z,20.81
2022-10-26T14:13:33.077Z,20.76
2022-10-26T14:18:35.720Z,20.68
2022-10-26T14:21:11.023Z,20.63
2022-10-26T14:23:50.592Z,20.60
2022-10-26T14:26:25.815Z,20.55
2022-10-26T14:28:59.243Z,20.49
2022-10-26T14:31:32.206Z,20.46
2022-10-26T14:34:04.514Z,20.40
2022-10-26T14:36:42.994Z,20.34
2022-10-26T14:39:22.274Z,20.30
2022-10-26T14:41:56.369Z,20.24
2022-10-26T14:44:28.311Z,20.18
2022-10-26T14:46:58.937Z,20.12
2022-10-26T14:49:31.279Z,20.05
2022-10-26T14:52:10.017Z,20.02
2022-10-26T14:54:40.729Z,19.93
2022-10-26T14:57:33.908Z,19.88
2022-10-26T15:00:07.436Z,19.82
2022-10-26T15:02:38.375Z,19.75
2022-10-26T15:05:22.575Z,19.65
2022-10-26T15:07:56.466Z,19.60
2022-10-26T15:10:51.989Z,19.52
2022-10-26T15:13:31.552Z,19.46
2022-10-26T15:16:12.554Z,19.39
2022-10-26T15:18:43.137Z,19.31
2022-10-26T15:21:25.980Z,19.25
2022-10-26T15:24:00.810Z,19.17
2022-10-26T15:26:32.440Z,19.08
2022-10-26T15:29:03.121Z,19.00
2022-10-26T15:31:37.294Z,18.89
2022-10-26T15:34:17.519Z,18.80
2022-10-26T15:39:46.847Z,18.56
2022-10-26T15:42:17.838Z,18.48
2022-10-26T15:44:48.610Z,18.38
2022-10-26T15:47:22.519Z,18.27
2022-10-26T15:49:53.015Z,18.19
2022-10-26T15:52:23.738Z,18.09
2022-10-26T15:54:58.029Z,18.03
2022-10-26T15:57:30.217Z,17.95
2022-10-26T16:00:00.736Z,17.87
2022-10-26T16:02:31.560Z,17.81
2022-10-26T16:05:01.972Z,17.73
2022-10-26T16:07:33.970Z,17.65
2022-10-26T16:10:07.810Z,16.69
2022-10-26T16:12:39.838Z,15.37
2022-10-26T16:15:12.399Z,14.20
2022-10-26T16:17:43.052Z,13.50
2022-10-26T16:20:17.144Z,13.10
2022-10-26T16:22:50.109Z,12.93
2022-10-26T16:25:26.255Z,12.94
2022-10-26T16:27:58.258Z,12.97
2022-10-26T16:30:30.645Z,12.99
2022-10-26T16:33:01.378Z,13.01
2022-10-26T16:35:31.957Z,12.97
2022-10-26T16:38:02.989Z,12.86
2022-10-26T16:40:36.080Z,12.65
2022-10-26T16:43:06.669Z,12.82
2022-10-26T16:45:37.243Z,12.98
2022-10-26T16:48:14.276Z,13.10
2022-10-26T16:50:44.859Z,13.38
2022-10-26T16:53:15.516Z,13.58
2022-10-26T16:55:48.778Z,13.77
2022-10-26T16:58:19.381Z,13.94
2022-10-26T17:00:49.840Z,14.09
2022-10-26T17:03:20.585Z,14.05
2022-10-26T17:05:51.058Z,13.50
2022-10-26T17:08:21.681Z,12.85
2022-10-26T17:10:54.895Z,12.41
2022-10-26T17:13:25.662Z,12.24
2022-10-26T17:15:56.913Z,12.11
2022-10-26T17:18:28.195Z,12.01
2022-10-26T17:21:00.378Z,11.90
2022-10-26T17:23:32.066Z,11.82
2022-10-26T17:26:08.845Z,11.73
2022-10-26T17:28:40.459Z,11.66
2022-10-26T17:31:13.549Z,11.50
2022-10-26T17:33:51.026Z,11.57
2022-10-26T17:36:26.029Z,11.69
2022-10-26T17:38:59.362Z,11.84
2022-10-26T17:41:33.973Z,12.03
2022-10-26T17:44:05.366Z,12.19
2022-10-26T17:46:37.178Z,12.35
2022-10-26T17:49:08.602Z,12.50
2022-10-26T17:51:40.153Z,12.61
2022-10-26T17:54:11.586Z,12.72
2022-10-26T17:56:45.771Z,12.80
2022-10-26T17:59:19.609Z,12.87
2022-10-26T18:01:51.083Z,12.92
2022-10-26T18:04:23.280Z,12.87
2022-10-26T18:06:54.643Z,12.97
2022-10-26T18:09:26.072Z,13.01
2022-10-26T18:12:00.066Z,13.01
2022-10-26T18:14:31.826Z,13.02
2022-10-26T18:17:02.859Z,12.98
2022-10-26T18:19:33.949Z,12.99
2022-10-26T18:22:04.854Z,12.98
2022-10-26T18:24:35.695Z,12.93
2022-10-26T18:27:09.760Z,12.90
2022-10-26T18:29:40.702Z,12.88
2022-10-26T18:32:12.461Z,12.87
2022-10-26T18:34:44.041Z,12.86
2022-10-26T18:37:15.569Z,12.84
2022-10-26T18:39:46.822Z,12.78
2022-10-26T18:42:20.826Z,12.76
2022-10-26T18:44:52.723Z,12.72
2022-10-26T18:47:23.862Z,12.68
2022-10-26T18:49:55.662Z,12.65
2022-10-26T18:52:28.170Z,12.59
2022-10-26T18:54:59.596Z,12.53
2022-10-26T18:57:33.492Z,12.46
2022-10-26T19:00:05.138Z,12.40
2022-10-26T19:02:36.252Z,12.35
2022-10-26T19:05:07.807Z,12.24
2022-10-26T19:07:41.040Z,12.26
2022-10-26T19:10:13.968Z,12.20
2022-10-26T19:12:47.748Z,12.14
2022-10-26T19:15:19.173Z,12.11
2022-10-26T19:17:50.369Z,12.05
2022-10-26T19:20:21.388Z,12.01
2022-10-26T19:22:55.997Z,11.84
2022-10-26T19:25:27.302Z,11.87
2022-10-26T19:28:00.689Z,11.80
2022-10-26T19:30:33.493Z,11.70
2022-10-26T19:33:04.212Z,11.67
2022-10-26T19:38:06.799Z,11.50
2022-10-26T19:40:37.484Z,11.41
2022-10-26T19:43:12.835Z,11.30
2022-10-26T19:45:43.880Z,11.28
2022-10-26T19:48:14.911Z,11.23
2022-10-26T19:50:52.218Z,11.18
2022-10-26T19:53:24.073Z,11.12
2022-10-26T19:55:59.233Z,11.10
2022-10-26T19:58:34.305Z,11.05
2022-10-26T20:01:06.327Z,11.01
2022-10-26T20:03:37.716Z,10.97
2022-10-26T20:06:13.291Z,10.94
2022-10-26T20:08:45.749Z,10.93
2022-10-26T20:11:17.999Z,10.92
2022-10-26T20:13:52.053Z,10.93
2022-10-26T20:16:23.619Z,10.92
2022-10-26T20:18:54.944Z,10.92
2022-10-26T20:21:25.913Z,10.89
2022-10-26T20:23:57.276Z,10.85
2022-10-26T20:26:28.876Z,10.83
2022-10-26T20:29:03.656Z,10.78
2022-10-26T20:31:34.906Z,10.75
2022-10-26T20:34:06.487Z,10.70
2022-10-26T20:36:38.753Z,10.67
2022-10-26T20:39:10.665Z,10.63
2022-10-26T20:41:46.154Z,10.60
2022-10-26T20:44:26.092Z,10.56
2022-10-26T20:46:57.877Z,10.52
2022-10-26T20:49:30.091Z,10.46
2022-10-26T20:52:20.731Z,10.42
2022-10-26T20:54:58.023Z,10.36
2022-10-26T20:57:33.821Z,10.30
2022-10-26T21:00:10.417Z,10.24
2022-10-26T21:02:41.340Z,10.21
2022-10-26T21:05:12.714Z,10.16
2022-10-26T21:07:44.438Z,10.12
2022-10-26T21:10:15.699Z,10.09
2022-10-26T21:12:46.892Z,10.06
2022-10-26T21:15:21.012Z,10.02
2022-10-26T21:17:52.840Z,9.99
2022-10-26T21:20:24.782Z,9.98
2022-10-26T21:22:56.890Z,9.96
2022-10-26T21:25:29.619Z,9.92
2022-10-26T21:28:01.418Z,9.88
2022-10-26T21:30:36.418Z,9.85
2022-10-26T21:33:10.073Z,9.82
2022-10-26T21:35:45.409Z,9.80
2022-10-26T21:38:18.981Z,9.76
2022-10-26T21:40:52.003Z,9.74
2022-10-26T21:43:24.403Z,9.71
2022-10-26T21:46:03.949Z,9.72
2022-10-26T21:48:37.584Z,9.67
2022-10-26T21:51:12.391Z,9.68
2022-10-26T21:53:44.931Z,9.66
2022-10-26T21:56:22.939Z,9.63
2022-10-26T21:58:55.617Z,9.59
2022-10-26T22:01:30.627Z,9.52
2022-10-26T22:04:03.301Z,9.49
2022-10-26T22:06:36.359Z,9.42
2022-10-26T22:09:09.198Z,9.36
2022-10-26T22:11:42.156Z,9.29
2022-10-26T22:14:15.152Z,9.20
2022-10-26T22:16:50.770Z,9.11
2022-10-26T22:19:23.251Z,9.20
2022-10-26T22:21:55.941Z,9.18
2022-10-26T22:24:29.492Z,9.16
2022-10-26T22:27:02.602Z,9.14
2022-10-26T22:29:36.129Z,9.11
2022-10-26T22:32:13.011Z,9.07
2022-10-26T22:34:44.668Z,8.94
2022-10-26T22:37:18.094Z,9.03
2022-10-26T22:39:51.326Z,9.03
2022-10-26T22:42:23.766Z,9.04
2022-10-26T22:44:58.595Z,9.02
2022-10-26T22:47:34.334Z,9.00
2022-10-26T22:50:07.798Z,8.93
2022-10-26T22:52:40.489Z,8.87
2022-10-26T22:55:13.993Z,8.80
2022-10-26T22:57:47.666Z,8.64
2022-10-26T23:00:21.333Z,8.66
2022-10-26T23:02:57.202Z,8.59
2022-10-26T23:05:31.121Z,8.56
2022-10-26T23:08:05.265Z,8.53
2022-10-26T23:10:39.978Z,8.50
2022-10-26T23:13:13.514Z,8.47
2022-10-26T23:15:47.564Z,8.43
2022-10-26T23:18:24.289Z,8.43
2022-10-26T23:20:56.630Z,8.42
2022-10-26T23:23:30.241Z,8.42
2022-10-26T23:26:06.414Z,8.44
2022-10-26T23:28:38.780Z,8.44
2022-10-26T23:31:12.158Z,8.43
2022-10-26T23:33:48.830Z,8.40
2022-10-26T23:36:21.509Z,8.38
2022-10-26T23:38:54.446Z,8.36
2022-10-26T23:41:27.536Z,8.35
2022-10-26T23:43:59.916Z,8.33
2022-10-26T23:46:30.786Z,8.28
2022-10-26T23:49:06.261Z,8.25
2022-10-26T23:51:39.441Z,8.22
2022-10-26T23:54:13.390Z,8.18
2022-10-26T23:56:46.298Z,8.15
2022-10-26T23:59:22.114Z,8.12
